sensor_id;sensor_type;location;lat;lon;timestamp;P1;durP1;ratioP1;P2;durP2;ratioP2
17927;SDS011;9089;58.396;15.544;2022-12-18T00:00:29;12.70;;;7.93;;
17927;SDS011;9089;58.396;15.544;2022-12-18T00:02:55;15.05;;;9.00;;
17927;SDS011;9089;58.396;15.544;2022-12-18T00:05:20;11.88;;;8.52;;
17927;SDS011;9089;58.396;15.544;2022-12-18T00:07:46;13.38;;;8.63;;
17927;SDS011;9089;58.396;15.544;2022-12-18T00:10:11;12.35;;;8.50;;
17927;SDS011;9089;58.396;15.544;2022-12-18T00:12:36;12.88;;;8.13;;
17927;SDS011;9089;58.396;15.544;2022-12-18T00:15:02;12.98;;;9.07;;
17927;SDS011;9089;58.396;15.544;2022-12-18T00:17:29;12.48;;;8.05;;
17927;SDS011;9089;58.396;15.544;2022-12-18T00:19:54;12.10;;;8.38;;
17927;SDS011;9089;58.396;15.544;2022-12-18T00:22:20;13.07;;;8.63;;
17927;SDS011;9089;58.396;15.544;2022-12-18T00:24:45;13.48;;;8.73;;
17927;SDS011;9089;58.396;15.544;2022-12-18T00:27:11;12.43;;;8.20;;
17927;SDS011;9089;58.396;15.544;2022-12-18T00:29:39;11.63;;;8.00;;
17927;SDS011;9089;58.396;15.544;2022-12-18T00:32:04;14.85;;;8.35;;
17927;SDS011;9089;58.396;15.544;2022-12-18T00:34:31;11.88;;;8.98;;
17927;SDS011;9089;58.396;15.544;2022-12-18T00:36:57;12.75;;;8.07;;
17927;SDS011;9089;58.396;15.544;2022-12-18T00:39:22;12.48;;;8.45;;
17927;SDS011;9089;58.396;15.544;2022-12-18T00:41:47;12.82;;;8.23;;
17927;SDS011;9089;58.396;15.544;2022-12-18T00:44:31;12.95;;;7.97;;
17927;SDS011;9089;58.396;15.544;2022-12-18T00:46:57;10.98;;;7.55;;
17927;SDS011;9089;58.396;15.544;2022-12-18T00:49:22;11.07;;;7.25;;
17927;SDS011;9089;58.396;15.544;2022-12-18T00:51:49;11.63;;;8.10;;
17927;SDS011;9089;58.396;15.544;2022-12-18T00:54:15;11.05;;;7.68;;
17927;SDS011;9089;58.396;15.544;2022-12-18T00:56:40;11.95;;;7.43;;
17927;SDS011;9089;58.396;15.544;2022-12-18T00:59:06;12.20;;;8.55;;
17927;SDS011;9089;58.396;15.544;2022-12-18T01:01:31;12.68;;;7.72;;
17927;SDS011;9089;58.396;15.544;2022-12-18T01:03:58;13.60;;;7.90;;
17927;SDS011;9089;58.396;15.544;2022-12-18T01:06:24;11.05;;;7.50;;
17927;SDS011;9089;58.396;15.544;2022-12-18T01:08:50;12.10;;;8.93;;
17927;SDS011;9089;58.396;15.544;2022-12-18T01:11:16;15.93;;;8.43;;
17927;SDS011;9089;58.396;15.544;2022-12-18T01:13:42;9.98;;;7.22;;
17927;SDS011;9089;58.396;15.544;2022-12-18T01:16:08;12.32;;;8.18;;
17927;SDS011;9089;58.396;15.544;2022-12-18T01:18:34;12.48;;;7.00;;
17927;SDS011;9089;58.396;15.544;2022-12-18T01:20:59;9.50;;;6.90;;
17927;SDS011;9089;58.396;15.544;2022-12-18T01:23:28;13.18;;;7.30;;
17927;SDS011;9089;58.396;15.544;2022-12-18T01:25:54;10.10;;;7.85;;
17927;SDS011;9089;58.396;15.544;2022-12-18T01:28:20;13.00;;;8.30;;
17927;SDS011;9089;58.396;15.544;2022-12-18T01:30:45;11.15;;;7.72;;
17927;SDS011;9089;58.396;15.544;2022-12-18T01:33:11;12.40;;;7.82;;
17927;SDS011;9089;58.396;15.544;2022-12-18T01:35:39;12.10;;;8.13;;
17927;SDS011;9089;58.396;15.544;2022-12-18T01:38:05;14.15;;;8.13;;
17927;SDS011;9089;58.396;15.544;2022-12-18T01:40:30;10.48;;;7.38;;
17927;SDS011;9089;58.396;15.544;2022-12-18T01:42:57;12.68;;;7.80;;
17927;SDS011;9089;58.396;15.544;2022-12-18T01:45:25;12.73;;;8.27;;
17927;SDS011;9089;58.396;15.544;2022-12-18T01:47:52;12.10;;;7.63;;
17927;SDS011;9089;58.396;15.544;2022-12-18T01:50:19;15.23;;;8.57;;
17927;SDS011;9089;58.396;15.544;2022-12-18T01:52:46;11.82;;;6.97;;
17927;SDS011;9089;58.396;15.544;2022-12-18T01:55:12;10.82;;;6.90;;
17927;SDS011;9089;58.396;15.544;2022-12-18T01:57:39;10.30;;;6.90;;
17927;SDS011;9089;58.396;15.544;2022-12-18T02:00:09;11.32;;;6.93;;
17927;SDS011;9089;58.396;15.544;2022-12-18T02:02:38;11.68;;;6.63;;
17927;SDS011;9089;58.396;15.544;2022-12-18T02:05:05;11.82;;;7.22;;
17927;SDS011;9089;58.396;15.544;2022-12-18T02:07:33;10.77;;;6.28;;
17927;SDS011;9089;58.396;15.544;2022-12-18T02:10:03;10.07;;;6.38;;
17927;SDS011;9089;58.396;15.544;2022-12-18T02:12:30;10.43;;;6.50;;
17927;SDS011;9089;58.396;15.544;2022-12-18T02:15:00;10.88;;;7.60;;
17927;SDS011;9089;58.396;15.544;2022-12-18T02:17:30;10.10;;;6.97;;
17927;SDS011;9089;58.396;15.544;2022-12-18T02:20:01;12.50;;;7.28;;
17927;SDS011;9089;58.396;15.544;2022-12-18T02:22:29;13.45;;;7.10;;
17927;SDS011;9089;58.396;15.544;2022-12-18T02:25:07;10.52;;;6.15;;
17927;SDS011;9089;58.396;15.544;2022-12-18T02:27:37;10.45;;;6.63;;
17927;SDS011;9089;58.396;15.544;2022-12-18T02:30:04;8.82;;;6.57;;
17927;SDS011;9089;58.396;15.544;2022-12-18T02:32:30;12.77;;;7.03;;
17927;SDS011;9089;58.396;15.544;2022-12-18T02:34:57;10.85;;;7.70;;
17927;SDS011;9089;58.396;15.544;2022-12-18T02:37:26;11.68;;;7.13;;
17927;SDS011;9089;58.396;15.544;2022-12-18T02:39:52;12.60;;;7.53;;
17927;SDS011;9089;58.396;15.544;2022-12-18T02:42:20;8.90;;;6.57;;
17927;SDS011;9089;58.396;15.544;2022-12-18T02:44:49;9.57;;;6.38;;
17927;SDS011;9089;58.396;15.544;2022-12-18T02:47:18;11.43;;;6.18;;
17927;SDS011;9089;58.396;15.544;2022-12-18T02:49:49;9.38;;;6.38;;
17927;SDS011;9089;58.396;15.544;2022-12-18T02:52:18;9.50;;;6.63;;
17927;SDS011;9089;58.396;15.544;2022-12-18T02:54:54;9.48;;;7.00;;
17927;SDS011;9089;58.396;15.544;2022-12-18T02:57:24;9.38;;;6.57;;
17927;SDS011;9089;58.396;15.544;2022-12-18T02:59:53;8.55;;;6.90;;
17927;SDS011;9089;58.396;15.544;2022-12-18T03:02:21;8.98;;;6.00;;
17927;SDS011;9089;58.396;15.544;2022-12-18T03:04:49;9.15;;;5.95;;
17927;SDS011;9089;58.396;15.544;2022-12-18T03:07:18;9.25;;;6.53;;
17927;SDS011;9089;58.396;15.544;2022-12-18T03:09:46;10.75;;;6.50;;
17927;SDS011;9089;58.396;15.544;2022-12-18T03:12:14;10.95;;;6.38;;
17927;SDS011;9089;58.396;15.544;2022-12-18T03:14:53;10.25;;;6.18;;
17927;SDS011;9089;58.396;15.544;2022-12-18T03:17:20;9.65;;;5.60;;
17927;SDS011;9089;58.396;15.544;2022-12-18T03:19:47;9.95;;;6.60;;
17927;SDS011;9089;58.396;15.544;2022-12-18T03:22:14;8.98;;;6.45;;
17927;SDS011;9089;58.396;15.544;2022-12-18T03:24:46;11.35;;;6.40;;
17927;SDS011;9089;58.396;15.544;2022-12-18T03:27:14;10.68;;;7.00;;
17927;SDS011;9089;58.396;15.544;2022-12-18T03:29:42;13.25;;;6.95;;
17927;SDS011;9089;58.396;15.544;2022-12-18T03:32:14;10.90;;;6.90;;
17927;SDS011;9089;58.396;15.544;2022-12-18T03:34:41;9.13;;;6.95;;
17927;SDS011;9089;58.396;15.544;2022-12-18T03:37:11;11.18;;;6.90;;
17927;SDS011;9089;58.396;15.544;2022-12-18T03:39:36;11.30;;;6.95;;
17927;SDS011;9089;58.396;15.544;2022-12-18T03:42:04;9.57;;;6.68;;
17927;SDS011;9089;58.396;15.544;2022-12-18T03:44:35;10.13;;;7.35;;
17927;SDS011;9089;58.396;15.544;2022-12-18T03:47:05;8.77;;;6.35;;
17927;SDS011;9089;58.396;15.544;2022-12-18T03:49:35;10.23;;;6.38;;
17927;SDS011;9089;58.396;15.544;2022-12-18T03:52:06;10.30;;;6.75;;
17927;SDS011;9089;58.396;15.544;2022-12-18T03:54:32;8.90;;;6.88;;
17927;SDS011;9089;58.396;15.544;2022-12-18T03:57:08;8.95;;;6.28;;
17927;SDS011;9089;58.396;15.544;2022-12-18T03:59:35;12.88;;;6.88;;
17927;SDS011;9089;58.396;15.544;2022-12-18T04:02:02;13.18;;;7.93;;
17927;SDS011;9089;58.396;15.544;2022-12-18T04:04:29;10.20;;;6.30;;
17927;SDS011;9089;58.396;15.544;2022-12-18T04:06:59;8.70;;;6.70;;
17927;SDS011;9089;58.396;15.544;2022-12-18T04:09:26;12.90;;;6.70;;
17927;SDS011;9089;58.396;15.544;2022-12-18T04:11:52;9.93;;;6.35;;
17927;SDS011;9089;58.396;15.544;2022-12-18T04:14:18;11.60;;;6.63;;
17927;SDS011;9089;58.396;15.544;2022-12-18T04:16:48;9.13;;;6.55;;
17927;SDS011;9089;58.396;15.544;2022-12-18T04:19:15;14.43;;;8.05;;
17927;SDS011;9089;58.396;15.544;2022-12-18T04:21:43;9.10;;;6.60;;
17927;SDS011;9089;58.396;15.544;2022-12-18T04:24:11;13.77;;;7.53;;
17927;SDS011;9089;58.396;15.544;2022-12-18T04:26:41;11.10;;;6.57;;
17927;SDS011;9089;58.396;15.544;2022-12-18T04:29:12;9.98;;;7.47;;
17927;SDS011;9089;58.396;15.544;2022-12-18T04:31:38;11.18;;;7.18;;
17927;SDS011;9089;58.396;15.544;2022-12-18T04:34:04;12.88;;;7.68;;
17927;SDS011;9089;58.396;15.544;2022-12-18T04:36:36;12.60;;;7.32;;
17927;SDS011;9089;58.396;15.544;2022-12-18T04:39:02;12.32;;;7.70;;
17927;SDS011;9089;58.396;15.544;2022-12-18T04:41:29;12.23;;;8.23;;
17927;SDS011;9089;58.396;15.544;2022-12-18T04:43:55;12.27;;;7.97;;
17927;SDS011;9089;58.396;15.544;2022-12-18T04:46:20;10.30;;;7.55;;
17927;SDS011;9089;58.396;15.544;2022-12-18T04:48:46;13.98;;;8.40;;
17927;SDS011;9089;58.396;15.544;2022-12-18T04:51:12;14.80;;;9.00;;
17927;SDS011;9089;58.396;15.544;2022-12-18T04:53:38;13.60;;;8.23;;
17927;SDS011;9089;58.396;15.544;2022-12-18T04:56:04;11.95;;;9.23;;
17927;SDS011;9089;58.396;15.544;2022-12-18T04:58:31;14.18;;;9.45;;
17927;SDS011;9089;58.396;15.544;2022-12-18T05:00:57;14.95;;;8.50;;
17927;SDS011;9089;58.396;15.544;2022-12-18T05:03:22;12.80;;;8.50;;
17927;SDS011;9089;58.396;15.544;2022-12-18T05:05:48;12.63;;;8.80;;
17927;SDS011;9089;58.396;15.544;2022-12-18T05:08:14;11.88;;;8.57;;
17927;SDS011;9089;58.396;15.544;2022-12-18T05:10:39;12.38;;;8.43;;
17927;SDS011;9089;58.396;15.544;2022-12-18T05:13:05;13.82;;;9.05;;
17927;SDS011;9089;58.396;15.544;2022-12-18T05:15:32;14.95;;;9.35;;
17927;SDS011;9089;58.396;15.544;2022-12-18T05:17:57;13.55;;;8.40;;
17927;SDS011;9089;58.396;15.544;2022-12-18T05:20:23;14.55;;;10.20;;
17927;SDS011;9089;58.396;15.544;2022-12-18T05:22:49;13.77;;;9.45;;
17927;SDS011;9089;58.396;15.544;2022-12-18T05:25:14;14.77;;;9.27;;
17927;SDS011;9089;58.396;15.544;2022-12-18T05:27:40;15.63;;;9.45;;
17927;SDS011;9089;58.396;15.544;2022-12-18T05:30:06;13.93;;;9.98;;
17927;SDS011;9089;58.396;15.544;2022-12-18T05:32:33;14.45;;;8.65;;
17927;SDS011;9089;58.396;15.544;2022-12-18T05:34:58;15.88;;;9.30;;
17927;SDS011;9089;58.396;15.544;2022-12-18T05:37:24;16.10;;;9.52;;
17927;SDS011;9089;58.396;15.544;2022-12-18T05:39:49;16.52;;;9.63;;
17927;SDS011;9089;58.396;15.544;2022-12-18T05:42:14;16.40;;;9.60;;
17927;SDS011;9089;58.396;15.544;2022-12-18T05:44:40;14.75;;;9.68;;
17927;SDS011;9089;58.396;15.544;2022-12-18T05:47:05;17.60;;;9.20;;
17927;SDS011;9089;58.396;15.544;2022-12-18T05:49:32;14.50;;;9.57;;
17927;SDS011;9089;58.396;15.544;2022-12-18T05:51:58;14.13;;;9.75;;
17927;SDS011;9089;58.396;15.544;2022-12-18T05:54:23;14.07;;;9.63;;
17927;SDS011;9089;58.396;15.544;2022-12-18T05:56:48;15.32;;;9.02;;
17927;SDS011;9089;58.396;15.544;2022-12-18T05:59:14;13.70;;;8.30;;
17927;SDS011;9089;58.396;15.544;2022-12-18T06:01:39;11.85;;;8.45;;
17927;SDS011;9089;58.396;15.544;2022-12-18T06:04:05;14.82;;;8.98;;
17927;SDS011;9089;58.396;15.544;2022-12-18T06:06:32;15.23;;;9.20;;
17927;SDS011;9089;58.396;15.544;2022-12-18T06:08:58;11.10;;;8.52;;
17927;SDS011;9089;58.396;15.544;2022-12-18T06:11:24;13.90;;;9.27;;
17927;SDS011;9089;58.396;15.544;2022-12-18T06:13:50;14.00;;;9.43;;
17927;SDS011;9089;58.396;15.544;2022-12-18T06:16:16;11.30;;;8.45;;
17927;SDS011;9089;58.396;15.544;2022-12-18T06:18:41;13.48;;;8.93;;
17927;SDS011;9089;58.396;15.544;2022-12-18T06:21:07;10.73;;;7.55;;
17927;SDS011;9089;58.396;15.544;2022-12-18T06:23:33;11.43;;;8.00;;
17927;SDS011;9089;58.396;15.544;2022-12-18T06:26:02;10.07;;;7.63;;
17927;SDS011;9089;58.396;15.544;2022-12-18T06:28:28;10.70;;;7.88;;
17927;SDS011;9089;58.396;15.544;2022-12-18T06:30:54;12.93;;;8.85;;
17927;SDS011;9089;58.396;15.544;2022-12-18T06:33:19;12.90;;;8.27;;
17927;SDS011;9089;58.396;15.544;2022-12-18T06:35:44;12.88;;;8.68;;
17927;SDS011;9089;58.396;15.544;2022-12-18T06:38:10;9.32;;;7.25;;
17927;SDS011;9089;58.396;15.544;2022-12-18T06:40:37;10.63;;;8.52;;
17927;SDS011;9089;58.396;15.544;2022-12-18T06:43:04;12.30;;;7.82;;
17927;SDS011;9089;58.396;15.544;2022-12-18T06:45:29;10.07;;;7.78;;
17927;SDS011;9089;58.396;15.544;2022-12-18T06:47:54;8.90;;;7.40;;
17927;SDS011;9089;58.396;15.544;2022-12-18T06:50:20;8.45;;;6.40;;
17927;SDS011;9089;58.396;15.544;2022-12-18T06:52:45;8.52;;;6.72;;
17927;SDS011;9089;58.396;15.544;2022-12-18T06:55:11;11.10;;;7.93;;
17927;SDS011;9089;58.396;15.544;2022-12-18T06:57:37;10.43;;;7.35;;
17927;SDS011;9089;58.396;15.544;2022-12-18T07:00:04;10.65;;;7.43;;
17927;SDS011;9089;58.396;15.544;2022-12-18T07:02:30;8.90;;;6.60;;
17927;SDS011;9089;58.396;15.544;2022-12-18T07:04:56;9.05;;;7.63;;
17927;SDS011;9089;58.396;15.544;2022-12-18T07:07:21;10.32;;;7.25;;
17927;SDS011;9089;58.396;15.544;2022-12-18T07:09:46;9.30;;;7.30;;
17927;SDS011;9089;58.396;15.544;2022-12-18T07:12:12;10.95;;;7.22;;
17927;SDS011;9089;58.396;15.544;2022-12-18T07:14:39;9.77;;;7.47;;
17927;SDS011;9089;58.396;15.544;2022-12-18T07:17:04;10.50;;;7.05;;
17927;SDS011;9089;58.396;15.544;2022-12-18T07:19:29;9.40;;;7.20;;
17927;SDS011;9089;58.396;15.544;2022-12-18T07:21:55;9.43;;;6.70;;
17927;SDS011;9089;58.396;15.544;2022-12-18T07:24:20;9.38;;;7.75;;
17927;SDS011;9089;58.396;15.544;2022-12-18T07:26:46;9.82;;;7.88;;
17927;SDS011;9089;58.396;15.544;2022-12-18T07:29:11;9.82;;;7.10;;
17927;SDS011;9089;58.396;15.544;2022-12-18T07:31:38;10.52;;;7.78;;
17927;SDS011;9089;58.396;15.544;2022-12-18T07:34:03;12.10;;;8.27;;
17927;SDS011;9089;58.396;15.544;2022-12-18T07:36:29;10.38;;;7.70;;
17927;SDS011;9089;58.396;15.544;2022-12-18T07:38:54;10.27;;;7.90;;
17927;SDS011;9089;58.396;15.544;2022-12-18T07:41:21;11.23;;;8.70;;
17927;SDS011;9089;58.396;15.544;2022-12-18T07:43:46;12.73;;;8.65;;
17927;SDS011;9089;58.396;15.544;2022-12-18T07:46:12;13.48;;;9.70;;
17927;SDS011;9089;58.396;15.544;2022-12-18T07:48:42;12.32;;;9.23;;
17927;SDS011;9089;58.396;15.544;2022-12-18T07:51:08;10.77;;;8.68;;
17927;SDS011;9089;58.396;15.544;2022-12-18T07:53:34;14.30;;;8.93;;
17927;SDS011;9089;58.396;15.544;2022-12-18T07:56:00;12.05;;;8.32;;
17927;SDS011;9089;58.396;15.544;2022-12-18T07:58:25;12.63;;;9.63;;
17927;SDS011;9089;58.396;15.544;2022-12-18T08:00:51;11.70;;;8.90;;
17927;SDS011;9089;58.396;15.544;2022-12-18T08:03:17;13.40;;;8.85;;
17927;SDS011;9089;58.396;15.544;2022-12-18T08:05:44;10.68;;;8.73;;
17927;SDS011;9089;58.396;15.544;2022-12-18T08:08:09;13.32;;;8.88;;
17927;SDS011;9089;58.396;15.544;2022-12-18T08:10:34;10.38;;;7.78;;
17927;SDS011;9089;58.396;15.544;2022-12-18T08:13:00;10.55;;;7.88;;
17927;SDS011;9089;58.396;15.544;2022-12-18T08:15:25;17.17;;;8.07;;
17927;SDS011;9089;58.396;15.544;2022-12-18T08:17:51;11.77;;;8.20;;
17927;SDS011;9089;58.396;15.544;2022-12-18T08:20:16;9.27;;;7.65;;
17927;SDS011;9089;58.396;15.544;2022-12-18T08:22:44;13.18;;;8.43;;
17927;SDS011;9089;58.396;15.544;2022-12-18T08:25:10;10.75;;;8.48;;
17927;SDS011;9089;58.396;15.544;2022-12-18T08:27:35;11.73;;;8.52;;
17927;SDS011;9089;58.396;15.544;2022-12-18T08:30:01;12.93;;;8.60;;
17927;SDS011;9089;58.396;15.544;2022-12-18T08:32:27;12.35;;;8.65;;
17927;SDS011;9089;58.396;15.544;2022-12-18T08:34:53;12.30;;;8.88;;
17927;SDS011;9089;58.396;15.544;2022-12-18T08:37:18;12.10;;;8.15;;
17927;SDS011;9089;58.396;15.544;2022-12-18T08:39:45;11.63;;;7.93;;
17927;SDS011;9089;58.396;15.544;2022-12-18T08:42:11;11.77;;;9.23;;
17927;SDS011;9089;58.396;15.544;2022-12-18T08:44:55;12.65;;;8.27;;
17927;SDS011;9089;58.396;15.544;2022-12-18T08:47:20;12.10;;;8.63;;
17927;SDS011;9089;58.396;15.544;2022-12-18T08:49:45;12.60;;;8.45;;
17927;SDS011;9089;58.396;15.544;2022-12-18T08:52:11;11.27;;;8.65;;
17927;SDS011;9089;58.396;15.544;2022-12-18T08:54:39;14.60;;;8.27;;
17927;SDS011;9089;58.396;15.544;2022-12-18T08:57:06;12.77;;;8.90;;
17927;SDS011;9089;58.396;15.544;2022-12-18T08:59:32;14.60;;;9.57;;
17927;SDS011;9089;58.396;15.544;2022-12-18T09:01:57;15.63;;;10.30;;
17927;SDS011;9089;58.396;15.544;2022-12-18T09:04:22;18.05;;;11.07;;
17927;SDS011;9089;58.396;15.544;2022-12-18T09:06:48;16.25;;;10.57;;
17927;SDS011;9089;58.396;15.544;2022-12-18T09:09:13;14.40;;;9.18;;
17927;SDS011;9089;58.396;15.544;2022-12-18T09:11:39;14.10;;;9.60;;
17927;SDS011;9089;58.396;15.544;2022-12-18T09:14:06;16.00;;;10.10;;
17927;SDS011;9089;58.396;15.544;2022-12-18T09:16:31;15.05;;;10.02;;
17927;SDS011;9089;58.396;15.544;2022-12-18T09:18:57;14.30;;;9.70;;
17927;SDS011;9089;58.396;15.544;2022-12-18T09:21:26;13.68;;;8.80;;
17927;SDS011;9089;58.396;15.544;2022-12-18T09:23:53;18.13;;;8.80;;
17927;SDS011;9089;58.396;15.544;2022-12-18T09:26:18;13.90;;;9.05;;
17927;SDS011;9089;58.396;15.544;2022-12-18T09:28:44;12.80;;;8.05;;
17927;SDS011;9089;58.396;15.544;2022-12-18T09:31:11;10.90;;;8.52;;
17927;SDS011;9089;58.396;15.544;2022-12-18T09:33:40;16.73;;;9.13;;
17927;SDS011;9089;58.396;15.544;2022-12-18T09:36:07;11.73;;;8.73;;
17927;SDS011;9089;58.396;15.544;2022-12-18T09:38:33;12.98;;;9.90;;
17927;SDS011;9089;58.396;15.544;2022-12-18T09:40:59;13.98;;;9.05;;
17927;SDS011;9089;58.396;15.544;2022-12-18T09:43:26;14.80;;;8.52;;
17927;SDS011;9089;58.396;15.544;2022-12-18T09:45:53;10.98;;;8.60;;
17927;SDS011;9089;58.396;15.544;2022-12-18T09:48:23;15.93;;;9.13;;
17927;SDS011;9089;58.396;15.544;2022-12-18T09:50:49;13.07;;;9.15;;
17927;SDS011;9089;58.396;15.544;2022-12-18T09:53:15;12.32;;;8.32;;
17927;SDS011;9089;58.396;15.544;2022-12-18T09:55:44;13.40;;;8.05;;
17927;SDS011;9089;58.396;15.544;2022-12-18T09:58:13;11.88;;;7.38;;
17927;SDS011;9089;58.396;15.544;2022-12-18T10:00:42;10.60;;;6.95;;
17927;SDS011;9089;58.396;15.544;2022-12-18T10:03:08;10.38;;;7.07;;
17927;SDS011;9089;58.396;15.544;2022-12-18T10:05:36;12.35;;;7.30;;
17927;SDS011;9089;58.396;15.544;2022-12-18T10:08:04;10.25;;;7.35;;
17927;SDS011;9089;58.396;15.544;2022-12-18T10:10:32;11.68;;;7.90;;
17927;SDS011;9089;58.396;15.544;2022-12-18T10:13:02;13.80;;;7.53;;
17927;SDS011;9089;58.396;15.544;2022-12-18T10:15:31;10.55;;;7.75;;
17927;SDS011;9089;58.396;15.544;2022-12-18T10:18:01;10.82;;;8.13;;
17927;SDS011;9089;58.396;15.544;2022-12-18T10:20:32;10.35;;;7.18;;
17927;SDS011;9089;58.396;15.544;2022-12-18T10:23:01;9.13;;;7.18;;
17927;SDS011;9089;58.396;15.544;2022-12-18T10:25:29;9.80;;;7.40;;
17927;SDS011;9089;58.396;15.544;2022-12-18T10:27:57;12.40;;;7.25;;
17927;SDS011;9089;58.396;15.544;2022-12-18T10:30:23;9.88;;;6.93;;
17927;SDS011;9089;58.396;15.544;2022-12-18T10:32:49;12.50;;;7.95;;
17927;SDS011;9089;58.396;15.544;2022-12-18T10:35:16;10.57;;;7.32;;
17927;SDS011;9089;58.396;15.544;2022-12-18T10:40:24;10.45;;;7.28;;
17927;SDS011;9089;58.396;15.544;2022-12-18T10:42:57;10.45;;;6.70;;
17927;SDS011;9089;58.396;15.544;2022-12-18T10:45:27;10.30;;;7.10;;
17927;SDS011;9089;58.396;15.544;2022-12-18T10:47:53;11.00;;;7.25;;
17927;SDS011;9089;58.396;15.544;2022-12-18T10:50:19;11.00;;;6.13;;
17927;SDS011;9089;58.396;15.544;2022-12-18T10:52:52;11.20;;;6.75;;
17927;SDS011;9089;58.396;15.544;2022-12-18T10:55:17;15.45;;;8.80;;
17927;SDS011;9089;58.396;15.544;2022-12-18T10:57:44;9.40;;;6.40;;
17927;SDS011;9089;58.396;15.544;2022-12-18T11:00:20;12.77;;;7.65;;
17927;SDS011;9089;58.396;15.544;2022-12-18T11:02:46;7.88;;;5.38;;
17927;SDS011;9089;58.396;15.544;2022-12-18T11:05:22;6.82;;;5.72;;
17927;SDS011;9089;58.396;15.544;2022-12-18T11:07:48;8.73;;;5.88;;
17927;SDS011;9089;58.396;15.544;2022-12-18T11:10:15;9.18;;;5.30;;
17927;SDS011;9089;58.396;15.544;2022-12-18T11:12:41;8.63;;;5.60;;
17927;SDS011;9089;58.396;15.544;2022-12-18T11:15:15;7.50;;;5.32;;
17927;SDS011;9089;58.396;15.544;2022-12-18T11:17:40;9.57;;;5.03;;
17927;SDS011;9089;58.396;15.544;2022-12-18T11:20:07;7.97;;;5.32;;
17927;SDS011;9089;58.396;15.544;2022-12-18T11:22:44;7.20;;;5.15;;
17927;SDS011;9089;58.396;15.544;2022-12-18T11:25:19;7.43;;;4.85;;
17927;SDS011;9089;58.396;15.544;2022-12-18T11:27:47;7.63;;;4.65;;
17927;SDS011;9089;58.396;15.544;2022-12-18T11:30:20;7.53;;;5.10;;
17927;SDS011;9089;58.396;15.544;2022-12-18T11:32:46;8.82;;;5.18;;
17927;SDS011;9089;58.396;15.544;2022-12-18T11:35:14;8.15;;;4.75;;
17927;SDS011;9089;58.396;15.544;2022-12-18T11:37:42;8.77;;;5.00;;
17927;SDS011;9089;58.396;15.544;2022-12-18T11:40:10;8.27;;;4.88;;
17927;SDS011;9089;58.396;15.544;2022-12-18T11:42:38;6.43;;;5.05;;
17927;SDS011;9089;58.396;15.544;2022-12-18T11:45:08;7.47;;;4.43;;
17927;SDS011;9089;58.396;15.544;2022-12-18T11:47:45;9.07;;;4.15;;
17927;SDS011;9089;58.396;15.544;2022-12-18T11:50:14;6.63;;;3.85;;
17927;SDS011;9089;58.396;15.544;2022-12-18T11:52:41;7.70;;;4.47;;
17927;SDS011;9089;58.396;15.544;2022-12-18T11:55:10;8.65;;;4.22;;
17927;SDS011;9089;58.396;15.544;2022-12-18T11:57:37;6.32;;;3.60;;
17927;SDS011;9089;58.396;15.544;2022-12-18T12:00:10;5.97;;;4.20;;
17927;SDS011;9089;58.396;15.544;2022-12-18T12:02:48;5.32;;;3.97;;
17927;SDS011;9089;58.396;15.544;2022-12-18T12:05:27;7.65;;;3.90;;
17927;SDS011;9089;58.396;15.544;2022-12-18T12:07:55;7.18;;;4.25;;
17927;SDS011;9089;58.396;15.544;2022-12-18T12:10:29;7.18;;;3.42;;
17927;SDS011;9089;58.396;15.544;2022-12-18T12:13:02;6.10;;;3.78;;
17927;SDS011;9089;58.396;15.544;2022-12-18T12:15:32;4.30;;;3.13;;
17927;SDS011;9089;58.396;15.544;2022-12-18T12:18:05;9.63;;;3.67;;
17927;SDS011;9089;58.396;15.544;2022-12-18T12:20:36;3.55;;;2.85;;
17927;SDS011;9089;58.396;15.544;2022-12-18T12:23:05;5.15;;;3.20;;
17927;SDS011;9089;58.396;15.544;2022-12-18T12:25:36;5.00;;;3.17;;
17927;SDS011;9089;58.396;15.544;2022-12-18T12:28:09;4.25;;;3.20;;
17927;SDS011;9089;58.396;15.544;2022-12-18T12:30:39;3.88;;;2.90;;
17927;SDS011;9089;58.396;15.544;2022-12-18T12:33:13;6.32;;;3.63;;
17927;SDS011;9089;58.396;15.544;2022-12-18T12:35:43;9.10;;;3.75;;
17927;SDS011;9089;58.396;15.544;2022-12-18T12:38:10;3.60;;;3.10;;
17927;SDS011;9089;58.396;15.544;2022-12-18T12:40:37;6.03;;;3.25;;
17927;SDS011;9089;58.396;15.544;2022-12-18T12:43:07;5.28;;;3.22;;
17927;SDS011;9089;58.396;15.544;2022-12-18T12:45:40;5.57;;;4.00;;
17927;SDS011;9089;58.396;15.544;2022-12-18T12:48:13;5.97;;;3.65;;
17927;SDS011;9089;58.396;15.544;2022-12-18T12:50:40;5.03;;;3.33;;
17927;SDS011;9089;58.396;15.544;2022-12-18T12:53:07;5.95;;;3.38;;
17927;SDS011;9089;58.396;15.544;2022-12-18T12:55:35;6.70;;;3.20;;
17927;SDS011;9089;58.396;15.544;2022-12-18T12:58:02;4.40;;;3.05;;
17927;SDS011;9089;58.396;15.544;2022-12-18T13:00:31;6.18;;;3.33;;
17927;SDS011;9089;58.396;15.544;2022-12-18T13:03:03;3.97;;;3.45;;
17927;SDS011;9089;58.396;15.544;2022-12-18T13:05:34;5.00;;;3.10;;
17927;SDS011;9089;58.396;15.544;2022-12-18T13:08:03;5.18;;;3.85;;
17927;SDS011;9089;58.396;15.544;2022-12-18T13:10:33;6.93;;;3.95;;
17927;SDS011;9089;58.396;15.544;2022-12-18T13:12:59;6.85;;;3.33;;
17927;SDS011;9089;58.396;15.544;2022-12-18T13:15:28;8.38;;;4.18;;
17927;SDS011;9089;58.396;15.544;2022-12-18T13:18:11;4.85;;;3.80;;
17927;SDS011;9089;58.396;15.544;2022-12-18T13:20:38;7.38;;;3.67;;
17927;SDS011;9089;58.396;15.544;2022-12-18T13:25:46;5.15;;;3.90;;
17927;SDS011;9089;58.396;15.544;2022-12-18T13:28:12;6.38;;;4.13;;
17927;SDS011;9089;58.396;15.544;2022-12-18T13:30:42;5.88;;;3.95;;
17927;SDS011;9089;58.396;15.544;2022-12-18T13:35:53;6.95;;;4.18;;
17927;SDS011;9089;58.396;15.544;2022-12-18T13:38:32;6.75;;;3.90;;
17927;SDS011;9089;58.396;15.544;2022-12-18T13:40:59;7.55;;;4.25;;
17927;SDS011;9089;58.396;15.544;2022-12-18T13:43:29;6.05;;;4.95;;
17927;SDS011;9089;58.396;15.544;2022-12-18T13:45:59;6.60;;;4.22;;
17927;SDS011;9089;58.396;15.544;2022-12-18T13:48:25;5.88;;;4.22;;
17927;SDS011;9089;58.396;15.544;2022-12-18T13:50:56;5.05;;;3.55;;
17927;SDS011;9089;58.396;15.544;2022-12-18T13:53:24;7.75;;;4.28;;
17927;SDS011;9089;58.396;15.544;2022-12-18T13:55:51;8.43;;;4.40;;
17927;SDS011;9089;58.396;15.544;2022-12-18T13:58:17;9.40;;;3.63;;
17927;SDS011;9089;58.396;15.544;2022-12-18T14:00:43;5.53;;;3.47;;
17927;SDS011;9089;58.396;15.544;2022-12-18T14:03:15;6.35;;;3.83;;
17927;SDS011;9089;58.396;15.544;2022-12-18T14:05:43;4.55;;;3.75;;
17927;SDS011;9089;58.396;15.544;2022-12-18T14:08:10;4.65;;;3.42;;
17927;SDS011;9089;58.396;15.544;2022-12-18T14:10:39;7.30;;;3.80;;
17927;SDS011;9089;58.396;15.544;2022-12-18T14:13:05;5.78;;;4.13;;
17927;SDS011;9089;58.396;15.544;2022-12-18T14:15:33;6.68;;;3.80;;
17927;SDS011;9089;58.396;15.544;2022-12-18T14:18:00;7.30;;;4.53;;
17927;SDS011;9089;58.396;15.544;2022-12-18T14:20:26;6.57;;;3.83;;
17927;SDS011;9089;58.396;15.544;2022-12-18T14:22:52;6.53;;;4.05;;
17927;SDS011;9089;58.396;15.544;2022-12-18T14:25:18;5.93;;;3.58;;
17927;SDS011;9089;58.396;15.544;2022-12-18T14:27:45;5.78;;;4.28;;
17927;SDS011;9089;58.396;15.544;2022-12-18T14:33:05;6.60;;;4.32;;
17927;SDS011;9089;58.396;15.544;2022-12-18T14:35:31;6.68;;;4.32;;
17927;SDS011;9089;58.396;15.544;2022-12-18T14:38:09;8.45;;;4.72;;
17927;SDS011;9089;58.396;15.544;2022-12-18T14:40:34;7.18;;;4.40;;
17927;SDS011;9089;58.396;15.544;2022-12-18T14:43:00;7.05;;;4.28;;
17927;SDS011;9089;58.396;15.544;2022-12-18T14:45:32;7.93;;;4.45;;
17927;SDS011;9089;58.396;15.544;2022-12-18T14:47:58;5.78;;;4.25;;
17927;SDS011;9089;58.396;15.544;2022-12-18T14:50:25;6.60;;;4.22;;